createdAt,value
2022-12-05T00:02:17.850Z,16.35
2022-12-05T00:07:24.139Z,17.23
2022-12-05T00:12:30.677Z,16.52
2022-12-05T00:17:38.650Z,13.70
2022-12-05T00:22:45.131Z,15.63
2022-12-05T00:27:51.510Z,14.13
2022-12-05T00:32:59.969Z,11.05
2022-12-05T00:38:06.339Z,14.25
2022-12-05T00:43:12.561Z,15.77
2022-12-05T00:48:20.148Z,13.52
2022-12-05T00:53:26.311Z,15.20
2022-12-05T00:58:33.734Z,18.13
2022-12-05T01:03:41.840Z,13.45
2022-12-05T01:08:48.624Z,16.70
2022-12-05T01:13:55.655Z,13.80
2022-12-05T01:19:08.497Z,14.70
2022-12-05T01:24:15.208Z,16.23
2022-12-05T01:29:23.404Z,15.23
2022-12-05T01:34:31.448Z,14.90
2022-12-05T01:39:37.776Z,12.67
2022-12-05T01:45:08.893Z,15.15
2022-12-05T01:50:16.837Z,18.48
2022-12-05T01:55:23.468Z,18.75
2022-12-05T02:00:30.226Z,15.35
2022-12-05T02:05:39.691Z,18.70
2022-12-05T02:10:50.517Z,19.35
2022-12-05T02:16:05.110Z,17.17
2022-12-05T02:22:10.947Z,15.15
2022-12-05T02:27:45.939Z,14.30
2022-12-05T02:33:12.388Z,14.85
2022-12-05T02:38:27.944Z,15.85
2022-12-05T02:43:41.438Z,12.35
2022-12-05T02:48:51.707Z,15.43
2022-12-05T02:54:02.781Z,14.98
2022-12-05T02:59:09.131Z,17.00
2022-12-05T03:04:18.680Z,14.98
2022-12-05T03:09:30.785Z,16.42
2022-12-05T03:14:46.166Z,16.85
2022-12-05T03:20:00.078Z,13.95
2022-12-05T03:25:08.118Z,16.50
2022-12-05T03:30:18.883Z,16.47
2022-12-05T03:35:33.731Z,12.10
2022-12-05T03:40:47.133Z,14.40
2022-12-05T03:46:02.265Z,18.60
2022-12-05T03:51:14.037Z,19.27
2022-12-05T03:56:26.751Z,14.73
2022-12-05T04:01:35.433Z,13.02
2022-12-05T04:06:47.368Z,12.70
2022-12-05T04:12:00.193Z,15.73
2022-12-05T04:17:12.638Z,16.67
2022-12-05T04:22:21.166Z,15.02
2022-12-05T04:27:36.953Z,13.67
2022-12-05T04:32:47.975Z,12.35
2022-12-05T04:38:03.840Z,17.25
2022-12-05T04:43:14.112Z,15.45
2022-12-05T04:48:21.322Z,11.30
2022-12-05T04:53:33.048Z,12.73
2022-12-05T04:58:39.416Z,14.02
2022-12-05T05:03:51.935Z,11.50
2022-12-05T05:09:00.792Z,12.32
2022-12-05T05:14:07.415Z,11.93
2022-12-05T05:19:14.143Z,9.55
2022-12-05T05:24:23.886Z,13.80
2022-12-05T05:29:30.156Z,11.25
2022-12-05T05:34:36.798Z,12.30
2022-12-05T05:39:44.723Z,9.32
2022-12-05T05:44:51.068Z,11.77
2022-12-05T05:49:57.640Z,11.50
2022-12-05T05:55:07.710Z,11.05
2022-12-05T06:00:16.310Z,12.82
2022-12-05T06:05:22.604Z,13.85
2022-12-05T06:10:31.376Z,14.15
2022-12-05T06:15:39.647Z,12.93
2022-12-05T06:20:54.966Z,13.35
2022-12-05T06:26:03.154Z,14.13
2022-12-05T06:31:11.470Z,11.23
2022-12-05T06:36:20.873Z,11.70
2022-12-05T06:41:29.551Z,14.65
2022-12-05T06:46:35.798Z,12.90
2022-12-05T06:51:42.177Z,13.52
2022-12-05T06:56:50.095Z,11.20
2022-12-05T07:01:56.432Z,13.77
2022-12-05T07:07:03.264Z,13.73
2022-12-05T07:12:11.372Z,14.73
2022-12-05T07:17:17.987Z,17.80
2022-12-05T07:22:25.681Z,16.60
2022-12-05T07:27:34.502Z,13.55
2022-12-05T07:32:40.975Z,22.27
2022-12-05T07:37:47.352Z,18.65
2022-12-05T07:42:54.957Z,15.90
2022-12-05T07:48:01.295Z,14.52
2022-12-05T07:53:07.483Z,17.88
2022-12-05T07:58:15.145Z,16.05
2022-12-05T08:03:21.365Z,14.25
2022-12-05T08:08:27.715Z,13.25
2022-12-05T08:13:35.728Z,11.43
2022-12-05T08:18:42.193Z,14.32
2022-12-05T08:23:48.990Z,17.10
2022-12-05T08:29:00.815Z,15.82
2022-12-05T08:34:07.300Z,13.88
2022-12-05T08:39:16.792Z,15.05
2022-12-05T08:44:25.515Z,16.15
2022-12-05T08:49:31.876Z,17.00
2022-12-05T08:54:38.127Z,16.65
2022-12-05T08:59:45.774Z,16.40
2022-12-05T09:04:54.183Z,15.38
2022-12-05T09:10:00.890Z,15.35
2022-12-05T09:15:12.126Z,14.57
2022-12-05T09:20:18.900Z,14.50
2022-12-05T09:25:25.270Z,16.58
2022-12-05T09:30:32.773Z,20.52
2022-12-05T09:35:42.117Z,15.52
2022-12-05T09:40:50.403Z,18.55
2022-12-05T09:46:06.239Z,19.40
2022-12-05T09:51:14.180Z,16.83
2022-12-05T09:56:28.595Z,17.77
2022-12-05T10:01:43.015Z,16.00
2022-12-05T10:07:01.619Z,18.48
2022-12-05T10:12:21.916Z,18.98
2022-12-05T10:17:35.873Z,21.40
2022-12-05T10:22:49.398Z,15.82
2022-12-05T10:28:00.667Z,18.63
2022-12-05T10:33:19.902Z,19.50
2022-12-05T10:38:29.542Z,19.02
2022-12-05T10:43:43.838Z,18.83
2022-12-05T10:48:51.535Z,19.08
2022-12-05T10:53:58.310Z,18.65
2022-12-05T10:59:05.036Z,18.58
2022-12-05T11:04:30.873Z,19.40
2022-12-05T11:09:39.714Z,18.50
2022-12-05T11:15:05.839Z,20.13
2022-12-05T11:20:41.623Z,22.08
2022-12-05T11:25:48.061Z,18.60
2022-12-05T11:31:01.376Z,23.30
2022-12-05T11:36:23.799Z,22.48
2022-12-05T11:41:50.737Z,21.00
2022-12-05T11:47:08.125Z,20.08
2022-12-05T11:52:29.847Z,22.25
2022-12-05T11:58:07.284Z,22.38
2022-12-05T12:03:46.675Z,22.83
2022-12-05T12:09:17.420Z,24.30
2022-12-05T12:14:34.781Z,21.23
2022-12-05T12:20:12.862Z,23.02
2022-12-05T12:25:33.417Z,23.63
2022-12-05T12:31:02.078Z,27.65
2022-12-05T12:36:19.863Z,39.15
2022-12-05T12:41:58.115Z,26.80
2022-12-05T12:47:06.234Z,25.03
2022-12-05T12:52:17.525Z,29.37
2022-12-05T12:57:33.124Z,45.85
2022-12-05T13:02:48.250Z,44.92
2022-12-05T13:07:59.895Z,59.05
2022-12-05T13:13:11.937Z,50.92
2022-12-05T13:18:21.144Z,38.30
2022-12-05T13:28:45.463Z,33.53
2022-12-05T13:33:53.038Z,37.35
2022-12-05T13:39:22.963Z,34.30
2022-12-05T13:44:37.718Z,28.90
2022-12-05T13:49:50.356Z,38.10
2022-12-05T13:55:02.647Z,35.60
2022-12-05T14:00:34.518Z,30.98
2022-12-05T14:05:53.699Z,34.42
2022-12-05T14:11:13.385Z,36.63
2022-12-05T14:16:51.528Z,34.72
2022-12-05T14:22:15.797Z,27.57
2022-12-05T14:27:45.062Z,30.60
2022-12-05T14:32:54.401Z,36.25
2022-12-05T14:38:05.832Z,36.20
2022-12-05T14:43:23.499Z,34.97
2022-12-05T14:48:35.194Z,34.70
2022-12-05T14:53:45.157Z,35.88
2022-12-05T14:58:59.765Z,43.85
2022-12-05T15:04:16.351Z,40.25
2022-12-05T15:09:43.822Z,31.60
2022-12-05T15:15:09.631Z,41.03
2022-12-05T15:20:40.285Z,46.25
2022-12-05T15:25:47.771Z,35.30
2022-12-05T15:30:59.116Z,32.40
2022-12-05T15:36:09.020Z,52.60
2022-12-05T15:41:19.933Z,46.75
2022-12-05T15:46:28.426Z,42.20
2022-12-05T15:51:39.766Z,39.22
2022-12-05T15:56:52.180Z,43.85
2022-12-05T16:02:05.251Z,44.45
2022-12-05T16:07:15.535Z,39.60
2022-12-05T16:12:28.860Z,34.90
2022-12-05T16:17:44.509Z,34.33
2022-12-05T16:22:55.569Z,41.92
2022-12-05T16:28:18.942Z,45.10
2022-12-05T16:33:25.620Z,33.78
2022-12-05T16:38:34.770Z,36.72
2022-12-05T16:43:48.239Z,32.08
2022-12-05T16:49:21.118Z,36.10
2022-12-05T16:54:29.208Z,43.13
2022-12-05T16:59:38.330Z,62.47
2022-12-05T17:09:52.487Z,46.40
2022-12-05T17:15:00.626Z,42.87
2022-12-05T17:20:09.220Z,40.93
2022-12-05T17:25:28.704Z,58.25
2022-12-05T17:35:43.041Z,56.13
2022-12-05T17:40:54.976Z,49.65
2022-12-05T17:46:02.901Z,56.00
2022-12-05T17:51:13.505Z,35.50
2022-12-05T17:56:21.969Z,49.88
2022-12-05T18:01:28.645Z,42.90
2022-12-05T18:06:35.782Z,46.92
2022-12-05T18:11:43.590Z,50.05
2022-12-05T18:16:50.288Z,55.72
2022-12-05T18:21:57.556Z,49.55
2022-12-05T18:27:06.119Z,42.17
2022-12-05T18:32:13.048Z,44.50
2022-12-05T18:37:19.916Z,36.65
2022-12-05T18:42:28.852Z,42.55
2022-12-05T18:47:36.315Z,47.15
2022-12-05T18:52:43.393Z,45.80
2022-12-05T18:57:53.789Z,40.70
2022-12-05T19:03:07.954Z,38.17
2022-12-05T19:08:17.715Z,45.45
2022-12-05T19:13:27.270Z,47.72
2022-12-05T19:23:41.408Z,38.47
2022-12-05T19:28:50.562Z,36.92
2022-12-05T19:34:01.386Z,35.97
2022-12-05T19:39:13.736Z,53.28
2022-12-05T19:44:23.233Z,43.95
2022-12-05T19:49:30.628Z,39.58
2022-12-05T19:54:37.495Z,39.60
2022-12-05T19:59:47.396Z,35.38
2022-12-05T20:04:54.163Z,35.47
2022-12-05T20:10:02.854Z,35.88
2022-12-05T20:15:12.280Z,34.65
2022-12-05T20:20:20.622Z,32.55
2022-12-05T20:25:28.016Z,28.92
2022-12-05T20:35:46.443Z,34.38
2022-12-05T20:40:54.408Z,32.17
2022-12-05T20:46:08.477Z,27.17
2022-12-05T20:51:18.342Z,32.83
2022-12-05T20:56:29.000Z,32.67
2022-12-05T21:06:46.332Z,29.42
2022-12-05T21:11:52.938Z,33.10
2022-12-05T21:17:01.076Z,32.17
2022-12-05T21:22:07.458Z,32.45
2022-12-05T21:27:14.129Z,39.85
2022-12-05T21:32:21.939Z,30.30
2022-12-05T21:37:28.213Z,33.38
2022-12-05T21:42:34.840Z,37.88
2022-12-05T21:47:42.525Z,39.33
2022-12-05T21:52:48.821Z,39.70
2022-12-05T21:57:56.000Z,36.80
2022-12-05T22:03:04.009Z,37.88
2022-12-05T22:08:10.541Z,40.77
2022-12-05T22:13:17.143Z,34.63
2022-12-05T22:18:25.066Z,35.17
2022-12-05T22:23:31.957Z,38.97
2022-12-05T22:28:39.206Z,44.67
2022-12-05T22:33:47.946Z,37.22
2022-12-05T22:38:54.404Z,34.33
2022-12-05T22:44:02.015Z,32.75
2022-12-05T22:49:12.134Z,36.67
2022-12-05T22:54:18.714Z,37.17
2022-12-05T22:59:24.992Z,29.60
2022-12-05T23:04:32.828Z,38.95
2022-12-05T23:09:39.321Z,44.08
2022-12-05T23:14:45.965Z,36.80
2022-12-05T23:19:54.108Z,31.88
2022-12-05T23:25:00.258Z,29.38
2022-12-05T23:30:08.346Z,28.48
2022-12-05T23:35:16.449Z,26.97
2022-12-05T23:40:22.858Z,28.23
2022-12-05T23:45:29.356Z,30.27
2022-12-05T23:50:37.125Z,29.20
2022-12-05T23:55:43.517Z,28.73
